Aviation Digital Data Service (ADDS)

Output produced by METARs form (0645 UTC 31 August 2015)
found at http://aviationweather.gov/adds/metars/
 
KHYA 310530Z 3106/0106 25008KT P6SM BKN060 
     FM311400 27007KT P6SM SCT080 
     FM311800 23011G20KT P6SM SCT250 
     FM010300 27007KT P6SM FEW250